Aviation Digital Data Service (ADDS)

Output produced by METARs form (0449 UTC 22 February 2018)
found at http://bcaws.aviationweather.gov/adds/metars/
 
METAR text: KRHV 220347Z 33010KT 10SM SKC 09/01 A3017
Conditions at: KRHV (SAN JOSE/REID , CA, US) observed 0347 UTC 22 February 2018
Temperature: 9.0°C (48°F)
Dewpoint: 1.0°C (34°F) [RH = 57%]
Pressure (altimeter): 30.17 inches Hg (1021.8 mb)
Winds: from the NNW (330 degrees) at 12 MPH (10 knots; 5.2 m/s)
Visibility: 10 or more miles (16+ km)
Ceiling: at least 12,000 feet AGL
Clouds: clear skies
Weather: no significant weather observed at this time